createdAt,value
2023-03-06T00:02:27.092Z,711.08
2023-03-06T00:07:28.992Z,711.92
2023-03-06T00:12:30.863Z,711.85
2023-03-06T00:17:32.727Z,712.28
2023-03-06T00:22:34.587Z,709.45
2023-03-06T00:27:36.375Z,705.70
2023-03-06T00:32:38.354Z,707.38
2023-03-06T00:37:40.808Z,697.40
2023-03-06T00:42:42.810Z,703.93
2023-03-06T00:47:44.776Z,696.43
2023-03-06T00:52:46.640Z,702.73
2023-03-06T00:57:48.875Z,704.97
2023-03-06T01:02:51.231Z,721.80
2023-03-06T01:07:53.052Z,720.55
2023-03-06T01:12:55.404Z,703.13
2023-03-06T01:17:57.289Z,719.10
2023-03-06T01:22:59.262Z,708.35
2023-03-06T01:28:01.187Z,705.47
2023-03-06T01:33:04.003Z,701.42
2023-03-06T01:38:06.143Z,713.67
2023-03-06T01:43:28.620Z,711.72
2023-03-06T01:48:30.950Z,708.30
2023-03-06T01:53:33.193Z,694.20
2023-03-06T01:58:35.341Z,701.20
2023-03-06T02:03:39.037Z,702.83
2023-03-06T02:08:41.519Z,714.15
2023-03-06T02:13:44.707Z,711.22
2023-03-06T02:18:48.852Z,691.93
2023-03-06T02:24:04.922Z,692.35
2023-03-06T02:29:08.408Z,709.10
2023-03-06T02:34:16.243Z,704.65
2023-03-06T02:39:21.706Z,704.75
2023-03-06T02:44:24.835Z,698.72
2023-03-06T02:49:26.814Z,700.47
2023-03-06T02:54:28.732Z,701.28
2023-03-06T02:59:30.760Z,696.38
2023-03-06T03:04:33.205Z,698.30
2023-03-06T03:09:37.271Z,692.00
2023-03-06T03:14:39.459Z,702.15
2023-03-06T03:19:41.423Z,704.50
2023-03-06T03:24:43.736Z,698.90
2023-03-06T03:29:45.646Z,701.07
2023-03-06T03:34:47.575Z,714.08
2023-03-06T03:39:49.584Z,699.15
2023-03-06T03:44:51.910Z,711.45
2023-03-06T03:49:56.322Z,702.47
2023-03-06T03:54:59.446Z,716.35
2023-03-06T04:00:02.626Z,711.83
2023-03-06T04:05:22.709Z,696.27
2023-03-06T04:10:24.752Z,694.30
2023-03-06T04:15:26.888Z,693.50
2023-03-06T04:20:29.195Z,694.83
2023-03-06T04:25:34.819Z,695.17
2023-03-06T04:30:38.539Z,698.87
2023-03-06T04:35:40.638Z,699.77
2023-03-06T04:40:49.674Z,692.22
2023-03-06T04:45:51.966Z,694.63
2023-03-06T04:50:53.827Z,692.00
2023-03-06T04:55:55.729Z,696.63
2023-03-06T05:00:57.671Z,693.93
2023-03-06T05:06:00.677Z,692.37
2023-03-06T05:11:03.697Z,702.63
2023-03-06T05:16:06.593Z,696.70
2023-03-06T05:21:08.642Z,692.17
2023-03-06T05:26:13.582Z,692.73
2023-03-06T05:31:15.564Z,696.00
2023-03-06T05:36:17.458Z,698.63
2023-03-06T05:41:19.433Z,694.30
2023-03-06T05:46:21.452Z,695.80
2023-03-06T05:51:23.952Z,692.17
2023-03-06T05:56:25.956Z,688.60
2023-03-06T06:01:28.550Z,689.05
2023-03-06T06:06:30.451Z,699.53
2023-03-06T06:11:32.435Z,689.80
2023-03-06T06:16:34.337Z,688.37
2023-03-06T06:21:36.245Z,689.55
2023-03-06T06:26:38.096Z,691.30
2023-03-06T06:31:40.906Z,692.77
2023-03-06T06:36:43.078Z,697.93
2023-03-06T06:42:02.284Z,693.43
2023-03-06T06:47:22.320Z,694.67
2023-03-06T06:52:25.760Z,691.73
2023-03-06T06:57:27.758Z,693.88
2023-03-06T07:02:29.729Z,697.78
2023-03-06T07:07:34.501Z,690.20
2023-03-06T07:12:37.236Z,689.77
2023-03-06T07:17:39.135Z,688.33
2023-03-06T07:22:50.254Z,686.13
2023-03-06T07:27:54.520Z,685.97
2023-03-06T07:32:58.372Z,688.20
2023-03-06T07:38:00.720Z,690.77
2023-03-06T07:43:18.390Z,688.83
2023-03-06T07:48:28.105Z,687.23
2023-03-06T07:53:30.321Z,690.63
2023-03-06T07:58:32.153Z,688.07
2023-03-06T08:03:34.471Z,689.03
2023-03-06T08:08:39.417Z,686.97
2023-03-06T08:13:41.723Z,692.70
2023-03-06T08:18:45.829Z,689.77
2023-03-06T08:23:48.617Z,709.58
2023-03-06T08:28:55.309Z,711.92
2023-03-06T08:33:59.483Z,717.50
2023-03-06T08:39:01.953Z,718.40
2023-03-06T08:44:04.563Z,711.67
2023-03-06T08:49:06.484Z,713.85
2023-03-06T08:54:08.542Z,710.33
2023-03-06T08:59:11.980Z,714.58
2023-03-06T09:04:14.008Z,707.97
2023-03-06T09:09:16.049Z,711.58
2023-03-06T09:14:17.913Z,719.72
2023-03-06T09:19:19.726Z,705.65
2023-03-06T09:24:21.737Z,710.05
2023-03-06T09:29:23.619Z,728.30
2023-03-06T09:34:27.655Z,728.70
2023-03-06T09:39:29.522Z,707.03
2023-03-06T09:44:34.501Z,718.30
2023-03-06T09:50:20.920Z,721.23
2023-03-06T09:55:28.966Z,724.80
2023-03-06T10:00:37.089Z,729.65
2023-03-06T10:05:43.049Z,720.67
2023-03-06T10:10:53.933Z,689.80
2023-03-06T10:16:18.947Z,692.63
2023-03-06T10:21:21.524Z,744.95
2023-03-06T10:26:30.291Z,754.30
2023-03-06T10:31:34.415Z,762.67
2023-03-06T10:36:36.283Z,762.15
2023-03-06T10:41:38.799Z,763.55
2023-03-06T10:46:47.068Z,762.38
2023-03-06T10:52:06.714Z,750.03
2023-03-06T10:57:26.289Z,757.63
2023-03-06T11:02:31.598Z,747.33
2023-03-06T11:07:35.482Z,645.58
2023-03-06T11:12:42.299Z,639.53
2023-03-06T11:17:54.600Z,660.83
2023-03-06T11:22:56.433Z,653.60
2023-03-06T11:28:13.232Z,651.28
2023-03-06T11:33:46.441Z,666.58
2023-03-06T11:38:53.281Z,668.40
2023-03-06T11:44:03.384Z,675.17
2023-03-06T11:49:09.767Z,620.42
2023-03-06T11:54:14.125Z,642.80
2023-03-06T11:59:28.128Z,647.97
2023-03-06T12:04:39.363Z,697.78
2023-03-06T12:09:56.397Z,767.03
2023-03-06T12:15:18.034Z,766.27
2023-03-06T12:20:22.789Z,761.10
2023-03-06T12:25:27.807Z,768.05
2023-03-06T12:30:42.934Z,785.47
2023-03-06T12:36:14.249Z,780.53
2023-03-06T12:41:39.993Z,772.90
2023-03-06T12:46:47.095Z,720.63
2023-03-06T12:51:49.282Z,776.17
2023-03-06T12:56:52.664Z,775.33
2023-03-06T13:02:02.889Z,782.15
2023-03-06T13:07:27.988Z,779.30
2023-03-06T13:12:45.057Z,776.70
2023-03-06T13:17:47.026Z,778.13
2023-03-06T13:22:48.867Z,773.05
2023-03-06T13:27:53.737Z,775.42
2023-03-06T13:32:56.260Z,776.97
2023-03-06T13:37:59.605Z,773.30
2023-03-06T13:43:18.865Z,781.05
2023-03-06T13:48:47.649Z,775.17
2023-03-06T13:53:56.699Z,775.88
2023-03-06T13:59:13.807Z,753.00
2023-03-06T14:04:33.434Z,774.58
2023-03-06T14:09:41.354Z,781.15
2023-03-06T14:14:48.117Z,778.55
2023-03-06T14:19:51.212Z,778.33
2023-03-06T14:25:16.269Z,779.30
2023-03-06T14:30:21.507Z,778.15
2023-03-06T14:35:30.149Z,771.88
2023-03-06T14:40:35.841Z,757.30
2023-03-06T14:45:38.818Z,757.13
2023-03-06T14:50:41.974Z,760.60
2023-03-06T14:56:06.390Z,760.85
2023-03-06T15:01:11.475Z,760.60
2023-03-06T15:06:25.297Z,762.35
2023-03-06T15:11:27.380Z,764.85
2023-03-06T15:16:30.773Z,775.63
2023-03-06T15:21:37.624Z,764.85
2023-03-06T15:26:40.669Z,762.60
2023-03-06T15:31:45.356Z,753.20
2023-03-06T15:36:55.150Z,721.75
2023-03-06T15:42:24.910Z,659.53
2023-03-06T15:47:26.883Z,673.63
2023-03-06T15:52:28.766Z,742.63
2023-03-06T15:57:30.821Z,760.03
2023-03-06T16:02:33.466Z,761.53
2023-03-06T16:07:35.320Z,749.13
2023-03-06T16:12:37.181Z,746.63
2023-03-06T16:17:39.131Z,744.63
2023-03-06T16:22:41.030Z,749.58
2023-03-06T16:27:49.713Z,751.45
2023-03-06T16:32:51.907Z,754.90
2023-03-06T16:37:53.989Z,756.03
2023-03-06T16:42:56.440Z,755.60
2023-03-06T16:47:59.461Z,756.58
2023-03-06T16:53:02.531Z,753.97
2023-03-06T16:58:05.129Z,744.05
2023-03-06T17:03:07.473Z,752.78
2023-03-06T17:08:09.705Z,747.22
2023-03-06T17:13:12.098Z,747.30
2023-03-06T17:18:14.041Z,730.25
2023-03-06T17:23:15.938Z,716.67
2023-03-06T17:28:18.182Z,706.47
2023-03-06T17:33:20.048Z,699.85
2023-03-06T17:38:21.889Z,742.22
2023-03-06T17:43:23.730Z,749.92
2023-03-06T17:48:25.909Z,753.75
2023-03-06T17:53:28.066Z,716.67
2023-03-06T17:58:29.989Z,745.47
2023-03-06T18:03:31.822Z,741.05
2023-03-06T18:08:33.777Z,740.45
2023-03-06T18:13:38.694Z,744.88
2023-03-06T18:18:41.093Z,723.20
2023-03-06T18:23:43.339Z,713.43
2023-03-06T18:28:47.406Z,738.93
2023-03-06T18:33:49.549Z,706.00
2023-03-06T18:38:51.931Z,710.47
2023-03-06T18:43:59.292Z,713.10
2023-03-06T18:49:02.048Z,703.17
2023-03-06T18:54:05.296Z,713.50
2023-03-06T18:59:07.728Z,716.63
2023-03-06T19:04:09.995Z,705.80
2023-03-06T19:09:11.955Z,700.40
2023-03-06T19:14:14.972Z,712.83
2023-03-06T19:19:16.876Z,712.10
2023-03-06T19:24:18.780Z,710.90
2023-03-06T19:29:20.675Z,711.13
2023-03-06T19:34:22.544Z,705.33
2023-03-06T19:39:24.823Z,700.65
2023-03-06T19:44:26.837Z,704.72
2023-03-06T19:49:28.809Z,706.10
2023-03-06T19:54:32.471Z,695.08
2023-03-06T19:59:34.691Z,702.53
2023-03-06T20:04:37.075Z,700.72
2023-03-06T20:09:39.024Z,701.67
2023-03-06T20:14:41.449Z,701.97
2023-03-06T20:19:44.341Z,702.75
2023-03-06T20:24:46.657Z,708.55
2023-03-06T20:29:48.554Z,706.78
2023-03-06T20:34:50.573Z,720.22
2023-03-06T20:39:53.691Z,721.97
2023-03-06T20:44:55.771Z,701.37
2023-03-06T20:49:57.742Z,702.80
2023-03-06T20:54:59.605Z,716.15
2023-03-06T21:00:01.495Z,715.05
2023-03-06T21:05:03.889Z,729.80
2023-03-06T21:10:06.526Z,723.33
2023-03-06T21:15:08.618Z,705.13
2023-03-06T21:20:11.154Z,697.73
2023-03-06T21:25:13.095Z,694.63
2023-03-06T21:30:15.017Z,695.17
2023-03-06T21:35:17.486Z,722.65
2023-03-06T21:40:19.486Z,721.47
2023-03-06T21:45:21.759Z,719.00
2023-03-06T21:50:24.127Z,705.50
2023-03-06T21:55:28.348Z,711.37
2023-03-06T22:00:30.380Z,719.92
2023-03-06T22:05:32.299Z,722.67
2023-03-06T22:10:34.201Z,719.88
2023-03-06T22:15:36.657Z,720.00
2023-03-06T22:20:39.752Z,704.07
2023-03-06T22:25:44.115Z,705.43
2023-03-06T22:30:46.437Z,693.67
2023-03-06T22:35:48.379Z,698.20
2023-03-06T22:40:50.248Z,698.80
2023-03-06T22:45:52.901Z,699.27
2023-03-06T22:50:54.778Z,697.03
2023-03-06T22:56:01.149Z,694.60
2023-03-06T23:01:08.022Z,697.33
2023-03-06T23:06:19.093Z,692.70
2023-03-06T23:11:22.342Z,696.03
2023-03-06T23:16:42.713Z,695.20
2023-03-06T23:22:05.730Z,693.03
2023-03-06T23:27:26.328Z,694.53
2023-03-06T23:32:28.423Z,697.10
2023-03-06T23:37:30.586Z,695.00
2023-03-06T23:42:32.737Z,697.45
2023-03-06T23:47:34.768Z,700.00
2023-03-06T23:52:36.666Z,696.43
2023-03-06T23:57:38.524Z,696.77
